Time;durP1;ratioP1;P1;durP2;ratioP2;P2;SDS_P1;SDS_P2;PMS_P1;PMS_P2;Temp;Humidity;BMP_temperature;BMP_pressure;BME280_temperature;BME280_humidity;BME280_pressure;Samples;Min_cycle;Max_cycle;Signal;HPM_P1;HPM_P2
2022/03/23 00:00:21;;;;;;;;;;;;;;;;;;4220492;28;921;-60
2022/03/23 00:02:44;;;;;;;;;;;;;;;;;;4219619;28;1196;-60
2022/03/23 00:05:05;;;;;;;;;;;;;;;;;;4220360;28;1078;-60
2022/03/23 00:07:26;;;;;;;;;;;;;;;;;;4220250;28;1231;-60
2022/03/23 00:09:47;;;;;;;;;;;;;;;;;;4205400;28;1289;-61
2022/03/23 00:12:07;;;;;;;;;;;;;;;;;;4220346;28;1344;-60
2022/03/23 00:14:28;;;;;;;;;;;;;;;;;;4219965;28;1913;-60
2022/03/23 00:16:49;;;;;;;;;;;;;;;;;;4220670;28;880;-60
2022/03/23 00:19:09;;;;;;;;;;;;;;;;;;4220503;28;1164;-60
2022/03/23 00:21:30;;;;;;;;;;;;;;;;;;4220174;28;992;-60
2022/03/23 00:23:51;;;;;;;;;;;;;;;;;;4220548;28;1151;-61
2022/03/23 00:26:12;;;;;;;;;;;;;;;;;;4220209;28;1017;-60
2022/03/23 00:28:33;;;;;;;;;;;;;;;;;;4220041;28;813;-60
2022/03/23 00:30:54;;;;;;;;;;;;;;;;;;4220116;28;859;-60
2022/03/23 00:33:16;;;;;;;;;;;;;;;;;;4219714;28;980;-60
2022/03/23 00:35:37;;;;;;;;;;;;;;;;;;4219601;28;1913;-60
2022/03/23 00:37:58;;;;;;;;;;;;;;;;;;4219953;28;953;-59
2022/03/23 00:40:19;;;;;;;;;;;;;;;;;;4220241;28;936;-59
2022/03/23 00:42:40;;;;;;;;;;;;;;;;;;4219085;28;1271;-59
2022/03/23 00:45:03;;;;;;;;;;;;;;;;;;4219017;28;1032;-59
2022/03/23 00:47:23;;;;;;;;;;;;;;;;;;4220300;28;1186;-59
2022/03/23 00:49:44;;;;;;;;;;;;;;;;;;4220470;28;939;-59
2022/03/23 00:52:06;;;;;;;;;;;;;;;;;;4220275;28;1182;-59
2022/03/23 00:54:26;;;;;;;;;;;;;;;;;;4219736;28;1953;-59
2022/03/23 00:56:48;;;;;;;;;;;;;;;;;;4218653;28;1014;-60
2022/03/23 00:59:09;;;;;;;;;;;;;;;;;;4220055;28;1151;-59
2022/03/23 01:01:30;;;;;;;;;;;;;;;;;;4219873;28;953;-59
2022/03/23 01:03:51;;;;;;;;;;;;;;;;;;4220095;28;896;-60
2022/03/23 01:06:11;;;;;;;;;;;;;;;;;;4220355;28;898;-59
2022/03/23 01:08:34;;;;;;;;;;;;;;;;;;4220277;28;828;-59
2022/03/23 01:10:54;;;;;;;;;;;;;;;;;;4218872;28;1107;-59
2022/03/23 01:13:15;;;;;;;;;;;;;;;;;;4219913;28;987;-59
2022/03/23 01:15:36;;;;;;;;;;;;;;;;;;4220050;28;1918;-59
2022/03/23 01:17:57;;;;;;;;;;;;;;;;;;4218892;28;1090;-59
2022/03/23 01:20:19;;;;;;;;;;;;;;;;;;4218725;28;1272;-59
2022/03/23 01:22:41;;;;;;;;;;;;;;;;;;4219815;28;1178;-59
2022/03/23 01:25:01;;;;;;;;;;;;;;;;;;4247592;27;841;-59
2022/03/23 01:27:22;;;;;;;;;;;;;;;;;;4219694;28;1123;-60
2022/03/23 01:29:42;;;;;;;;;;;;;;;;;;4218865;28;1017;-61
2022/03/23 01:32:03;;;;;;;;;;;;;;;;;;4219593;28;1191;-59
2022/03/23 01:34:23;;;;;;;;;;;;;;;;;;4247421;27;1992;-60
2022/03/23 01:36:44;;;;;;;;;;;;;;;;;;4218045;28;1110;-59
2022/03/23 01:39:07;;;;;;;;;;;;;;;;;;4219685;28;1217;-59
2022/03/23 01:41:28;;;;;;;;;;;;;;;;;;4247663;27;937;-60
2022/03/23 01:43:49;;;;;;;;;;;;;;;;;;4219609;28;1305;-59
2022/03/23 01:46:09;;;;;;;;;;;;;;;;;;4219776;28;1083;-59
2022/03/23 01:48:30;;;;;;;;;;;;;;;;;;4219636;28;936;-59
2022/03/23 01:50:50;;;;;;;;;;;;;;;;;;4219431;28;964;-59
2022/03/23 01:53:11;;;;;;;;;;;;;;;;;;4219540;28;1019;-59
2022/03/23 01:55:31;;;;;;;;;;;;;;;;;;4218110;28;1910;-59
2022/03/23 01:57:52;;;;;;;;;;;;;;;;;;4217406;28;1292;-60
2022/03/23 02:03:54;;;;;;;;;;;;;;;;;;4207363;28;1024;-59
2022/03/23 02:06:15;;;;;;;;;;;;;;;;;;4217957;28;989;-59
2022/03/23 02:08:36;;;;;;;;;;;;;;;;;;4217777;28;976;-59
2022/03/23 02:10:56;;;;;;;;;;;;;;;;;;4217204;28;1082;-59
2022/03/23 02:13:25;;;;;;;;;;;;;;;;;;4217390;28;1044;-60
2022/03/23 02:15:46;;;;;;;;;;;;;;;;;;4218762;28;1909;-60
2022/03/23 02:18:06;;;;;;;;;;;;;;;;;;4217467;28;1050;-59
2022/03/23 02:20:27;;;;;;;;;;;;;;;;;;4217274;28;1134;-60
2022/03/23 02:22:48;;;;;;;;;;;;;;;;;;4217950;28;1125;-59
2022/03/23 02:25:08;;;;;;;;;;;;;;;;;;4219056;28;1153;-59
2022/03/23 02:27:29;;;;;;;;;;;;;;;;;;4218727;28;977;-60
2022/03/23 02:29:52;;;;;;;;;;;;;;;;;;4218856;28;935;-59
2022/03/23 02:32:13;;;;;;;;;;;;;;;;;;4218777;28;1041;-59
2022/03/23 02:34:33;;;;;;;;;;;;;;;;;;4218790;28;1109;-60
2022/03/23 02:36:54;;;;;;;;;;;;;;;;;;4218586;28;1038;-59
2022/03/23 02:39:15;;;;;;;;;;;;;;;;;;4218543;28;1213;-59
2022/03/23 02:41:36;;;;;;;;;;;;;;;;;;4218863;28;1000;-59
2022/03/23 02:43:56;;;;;;;;;;;;;;;;;;4218868;28;946;-60
2022/03/23 02:46:17;;;;;;;;;;;;;;;;;;4218906;28;1117;-59
2022/03/23 02:48:37;;;;;;;;;;;;;;;;;;4219454;28;1199;-59
2022/03/23 02:50:58;;;;;;;;;;;;;;;;;;4221531;28;942;-60
2022/03/23 03:03:51;;;;;;;;;;;;;;;;;;4221589;28;1145;-60
2022/03/23 03:06:12;;;;;;;;;;;;;;;;;;4221357;28;990;-59
2022/03/23 03:08:48;;;;;;;;;;;;;;;;;;4222044;28;868;-59
2022/03/23 03:11:09;;;;;;;;;;;;;;;;;;4222477;28;1257;-60
2022/03/23 03:13:30;;;;;;;;;;;;;;;;;;4221348;28;961;-59
2022/03/23 03:15:50;;;;;;;;;;;;;;;;;;4220131;28;1975;-59
2022/03/23 03:18:10;;;;;;;;;;;;;;;;;;4221510;28;1071;-59
2022/03/23 03:20:31;;;;;;;;;;;;;;;;;;4221419;28;1153;-59
2022/03/23 03:22:52;;;;;;;;;;;;;;;;;;4221424;28;1015;-59
2022/03/23 03:25:13;;;;;;;;;;;;;;;;;;4220222;28;1083;-59
2022/03/23 03:27:35;;;;;;;;;;;;;;;;;;4221344;28;1041;-59
2022/03/23 03:29:55;;;;;;;;;;;;;;;;;;4221275;28;1018;-59
2022/03/23 03:32:16;;;;;;;;;;;;;;;;;;4221701;28;920;-60
2022/03/23 03:34:37;;;;;;;;;;;;;;;;;;4221504;28;1197;-59
2022/03/23 03:36:58;;;;;;;;;;;;;;;;;;4219979;28;1901;-59
2022/03/23 03:39:18;;;;;;;;;;;;;;;;;;4221769;28;1147;-59
2022/03/23 03:41:39;;;;;;;;;;;;;;;;;;4221309;28;947;-59
2022/03/23 03:44:00;;;;;;;;;;;;;;;;;;4221304;28;959;-59
2022/03/23 03:46:20;;;;;;;;;;;;;;;;;;4221550;28;956;-59
2022/03/23 03:48:41;;;;;;;;;;;;;;;;;;4221518;28;860;-59
2022/03/23 03:51:02;;;;;;;;;;;;;;;;;;4220946;28;1212;-59
2022/03/23 03:53:23;;;;;;;;;;;;;;;;;;4221141;28;987;-59
2022/03/23 03:55:43;;;;;;;;;;;;;;;;;;4220833;28;1975;-59
2022/03/23 03:58:04;;;;;;;;;;;;;;;;;;4220388;28;1027;-59
2022/03/23 04:00:25;;;;;;;;;;;;;;;;;;4220350;28;1272;-59
2022/03/23 04:02:46;;;;;;;;;;;;;;;;;;4220929;28;965;-59
2022/03/23 04:05:06;;;;;;;;;;;;;;;;;;4220382;28;1037;-59
2022/03/23 04:07:27;;;;;;;;;;;;;;;;;;4220683;28;1212;-59
2022/03/23 04:09:48;;;;;;;;;;;;;;;;;;4220970;28;1349;-59
2022/03/23 04:12:09;;;;;;;;;;;;;;;;;;4220403;28;1564;-59
2022/03/23 04:14:29;;;;;;;;;;;;;;;;;;4220440;28;1021;-59
2022/03/23 04:16:50;;;;;;;;;;;;;;;;;;4220608;28;1976;-59
2022/03/23 04:19:11;;;;;;;;;;;;;;;;;;4220242;28;978;-59
2022/03/23 04:21:32;;;;;;;;;;;;;;;;;;4220632;28;1020;-59
2022/03/23 04:23:52;;;;;;;;;;;;;;;;;;4220871;28;933;-59
2022/03/23 04:26:13;;;;;;;;;;;;;;;;;;4220428;28;1033;-59
2022/03/23 04:28:34;;;;;;;;;;;;;;;;;;4220536;28;1131;-59
2022/03/23 04:30:55;;;;;;;;;;;;;;;;;;4220510;28;1030;-59
2022/03/23 04:33:15;;;;;;;;;;;;;;;;;;4220112;28;1124;-59
2022/03/23 04:35:36;;;;;;;;;;;;;;;;;;4218827;28;1909;-59
2022/03/23 04:37:56;;;;;;;;;;;;;;;;;;4220527;28;952;-59
2022/03/23 04:40:17;;;;;;;;;;;;;;;;;;4220388;28;1107;-60
2022/03/23 04:42:37;;;;;;;;;;;;;;;;;;4219864;28;983;-59
2022/03/23 04:44:58;;;;;;;;;;;;;;;;;;4220496;28;954;-59
2022/03/23 04:47:19;;;;;;;;;;;;;;;;;;4220396;28;1002;-59
2022/03/23 04:49:40;;;;;;;;;;;;;;;;;;4220335;28;976;-59
2022/03/23 04:52:00;;;;;;;;;;;;;;;;;;4218788;28;938;-59
2022/03/23 04:54:22;;;;;;;;;;;;;;;;;;4219935;28;911;-59
2022/03/23 04:56:42;;;;;;;;;;;;;;;;;;4219878;28;1914;-59
2022/03/23 04:59:04;;;;;;;;;;;;;;;;;;4220232;28;957;-59
2022/03/23 05:01:25;;;;;;;;;;;;;;;;;;4219778;28;1107;-60
2022/03/23 05:03:46;;;;;;;;;;;;;;;;;;4220553;28;1087;-59
2022/03/23 05:06:07;;;;;;;;;;;;;;;;;;4220016;28;1091;-59
2022/03/23 05:08:28;;;;;;;;;;;;;;;;;;4218727;28;1238;-60
2022/03/23 05:10:48;;;;;;;;;;;;;;;;;;4220046;28;1044;-59
2022/03/23 05:13:08;;;;;;;;;;;;;;;;;;4218854;28;1029;-59
2022/03/23 05:15:29;;;;;;;;;;;;;;;;;;4219818;28;1149;-59
2022/03/23 05:17:49;;;;;;;;;;;;;;;;;;4219803;28;1326;-58
2022/03/23 05:20:10;;;;;;;;;;;;;;;;;;4219917;28;947;-59
2022/03/23 05:22:31;;;;;;;;;;;;;;;;;;4220239;28;1032;-59
2022/03/23 05:24:51;;;;;;;;;;;;;;;;;;4220742;28;909;-59
2022/03/23 05:27:12;;;;;;;;;;;;;;;;;;4219419;28;949;-59
2022/03/23 05:29:33;;;;;;;;;;;;;;;;;;4219518;28;1000;-58
2022/03/23 05:31:53;;;;;;;;;;;;;;;;;;4219889;28;931;-59
2022/03/23 05:34:14;;;;;;;;;;;;;;;;;;4219317;28;984;-60
2022/03/23 05:36:34;;;;;;;;;;;;;;;;;;4219741;28;1918;-59
2022/03/23 05:38:54;;;;;;;;;;;;;;;;;;4220046;28;948;-59
2022/03/23 05:41:15;;;;;;;;;;;;;;;;;;4218146;28;1531;-59
2022/03/23 05:43:36;;;;;;;;;;;;;;;;;;4219468;28;934;-59
2022/03/23 05:45:56;;;;;;;;;;;;;;;;;;4219619;28;973;-59
2022/03/23 05:48:17;;;;;;;;;;;;;;;;;;4219322;28;954;-59
2022/03/23 05:50:38;;;;;;;;;;;;;;;;;;4219224;28;1028;-59
2022/03/23 05:52:58;;;;;;;;;;;;;;;;;;4219602;28;989;-59
2022/03/23 05:55:20;;;;;;;;;;;;;;;;;;4219254;28;978;-59
2022/03/23 05:57:40;;;;;;;;;;;;;;;;;;4218958;28;1985;-60
2022/03/23 06:00:01;;;;;;;;;;;;;;;;;;4219235;28;1193;-59
2022/03/23 06:02:32;;;;;;;;;;;;;;;;;;4200788;28;1038;-59
2022/03/23 06:04:52;;;;;;;;;;;;;;;;;;4202526;28;1414;-59
2022/03/23 06:07:13;;;;;;;;;;;;;;;;;;4214585;28;1427;-59
2022/03/23 06:09:34;;;;;;;;;;;;;;;;;;4218475;28;1722;-59
2022/03/23 06:11:56;;;;;;;;;;;;;;;;;;4219025;28;1074;-58
2022/03/23 06:14:17;;;;;;;;;;;;;;;;;;4219637;28;1103;-59
2022/03/23 06:16:38;;;;;;;;;;;;;;;;;;4219006;28;1890;-60
2022/03/23 06:18:59;;;;;;;;;;;;;;;;;;4219132;28;1086;-59
2022/03/23 06:21:19;;;;;;;;;;;;;;;;;;4217647;28;1708;-59
2022/03/23 06:23:40;;;;;;;;;;;;;;;;;;4221006;28;948;-60
2022/03/23 06:26:00;;;;;;;;;;;;;;;;;;4221882;28;957;-58
2022/03/23 06:28:23;;;;;;;;;;;;;;;;;;4221737;28;1310;-59
2022/03/23 06:30:43;;;;;;;;;;;;;;;;;;4213649;28;2377;-58
2022/03/23 06:33:03;;;;;;;;;;;;;;;;;;4204906;28;1099;-59
2022/03/23 06:35:26;;;;;;;;;;;;;;;;;;4209345;28;1499;-58
2022/03/23 06:37:46;;;;;;;;;;;;;;;;;;4217800;28;1914;-58
2022/03/23 06:40:07;;;;;;;;;;;;;;;;;;4211325;28;1403;-59
2022/03/23 06:42:29;;;;;;;;;;;;;;;;;;4221445;28;1159;-59
2022/03/23 06:44:53;;;;;;;;;;;;;;;;;;4221439;28;1325;-58
2022/03/23 06:47:15;;;;;;;;;;;;;;;;;;4220395;28;1174;-59
2022/03/23 06:49:36;;;;;;;;;;;;;;;;;;4221848;28;1064;-59
2022/03/23 06:51:57;;;;;;;;;;;;;;;;;;4219845;28;1935;-59
2022/03/23 06:54:20;;;;;;;;;;;;;;;;;;4221205;28;1110;-58
2022/03/23 06:56:41;;;;;;;;;;;;;;;;;;4220817;28;1937;-58
2022/03/23 06:59:05;;;;;;;;;;;;;;;;;;4221331;28;1317;-58
2022/03/23 07:01:28;;;;;;;;;;;;;;;;;;4220192;28;1635;-59
2022/03/23 07:03:49;;;;;;;;;;;;;;;;;;4221303;28;1300;-59
2022/03/23 07:06:09;;;;;;;;;;;;;;;;;;4221279;28;957;-59
2022/03/23 07:11:11;;;;;;;;;;;;;;;;;;4221276;28;1200;-58
2022/03/23 07:13:31;;;;;;;;;;;;;;;;;;4221367;28;1002;-59
2022/03/23 07:15:53;;;;;;;;;;;;;;;;;;4204308;28;959;-58
2022/03/23 07:18:14;;;;;;;;;;;;;;;;;;4204093;28;1967;-58
2022/03/23 07:20:35;;;;;;;;;;;;;;;;;;4204677;28;953;-58
2022/03/23 07:22:55;;;;;;;;;;;;;;;;;;4204053;28;995;-58
2022/03/23 07:25:16;;;;;;;;;;;;;;;;;;4217814;28;1452;-58
2022/03/23 07:27:37;;;;;;;;;;;;;;;;;;4221157;28;939;-58
2022/03/23 07:29:58;;;;;;;;;;;;;;;;;;4219507;28;1365;-58
2022/03/23 07:32:19;;;;;;;;;;;;;;;;;;4220079;28;987;-58
2022/03/23 07:34:39;;;;;;;;;;;;;;;;;;4220002;28;886;-58
2022/03/23 07:37:00;;;;;;;;;;;;;;;;;;4203956;28;2332;-58
2022/03/23 07:39:23;;;;;;;;;;;;;;;;;;4204293;28;1172;-59
2022/03/23 07:41:43;;;;;;;;;;;;;;;;;;4204009;28;1099;-59
2022/03/23 07:44:04;;;;;;;;;;;;;;;;;;4206176;28;1038;-59
2022/03/23 07:46:26;;;;;;;;;;;;;;;;;;4220772;28;831;-59
2022/03/23 07:48:46;;;;;;;;;;;;;;;;;;4220410;28;1202;-58
2022/03/23 07:51:07;;;;;;;;;;;;;;;;;;4219449;28;1204;-58
2022/03/23 07:53:28;;;;;;;;;;;;;;;;;;4219348;28;1025;-60
2022/03/23 07:55:48;;;;;;;;;;;;;;;;;;4220150;28;1132;-58
2022/03/23 07:58:09;;;;;;;;;;;;;;;;;;4220775;28;1909;-58
2022/03/23 08:00:29;;;;;;;;;;;;;;;;;;4219963;28;1293;-58
2022/03/23 08:02:51;;;;;;;;;;;;;;;;;;4219549;28;1015;-58
2022/03/23 08:05:12;;;;;;;;;;;;;;;;;;4204592;28;1008;-58
2022/03/23 08:07:32;;;;;;;;;;;;;;;;;;4219891;28;1111;-58
2022/03/23 08:09:53;;;;;;;;;;;;;;;;;;4219952;28;1253;-58
2022/03/23 08:12:16;;;;;;;;;;;;;;;;;;4219943;28;1254;-58
2022/03/23 08:14:37;;;;;;;;;;;;;;;;;;4220060;28;1336;-58
2022/03/23 08:16:57;;;;;;;;;;;;;;;;;;4220474;28;1994;-59
2022/03/23 08:19:18;;;;;;;;;;;;;;;;;;4220024;28;1406;-58
2022/03/23 08:21:38;;;;;;;;;;;;;;;;;;4220270;28;1157;-58
2022/03/23 08:23:59;;;;;;;;;;;;;;;;;;4220125;28;1467;-59
2022/03/23 08:26:19;;;;;;;;;;;;;;;;;;4220165;28;1007;-58
2022/03/23 08:28:40;;;;;;;;;;;;;;;;;;4218433;28;1113;-59
2022/03/23 08:31:00;;;;;;;;;;;;;;;;;;4220144;28;958;-58
2022/03/23 08:33:25;;;;;;;;;;;;;;;;;;4220540;28;989;-59
2022/03/23 08:35:46;;;;;;;;;;;;;;;;;;4219930;28;1002;-59
2022/03/23 08:38:06;;;;;;;;;;;;;;;;;;4219953;28;1992;-60
2022/03/23 08:40:28;;;;;;;;;;;;;;;;;;4219867;28;970;-59
2022/03/23 08:42:48;;;;;;;;;;;;;;;;;;4220196;28;828;-59
2022/03/23 08:45:09;;;;;;;;;;;;;;;;;;4219559;28;1204;-58
2022/03/23 08:47:30;;;;;;;;;;;;;;;;;;4220204;28;1331;-58
2022/03/23 08:49:50;;;;;;;;;;;;;;;;;;4218952;28;957;-58
2022/03/23 08:52:10;;;;;;;;;;;;;;;;;;4219794;28;996;-58
2022/03/23 08:54:31;;;;;;;;;;;;;;;;;;4219374;28;1090;-59
2022/03/23 08:56:52;;;;;;;;;;;;;;;;;;4219744;28;1002;-59
2022/03/23 08:59:13;;;;;;;;;;;;;;;;;;4219267;28;988;-59
2022/03/23 09:01:33;;;;;;;;;;;;;;;;;;4219466;28;1086;-59
2022/03/23 09:04:00;;;;;;;;;;;;;;;;;;4219711;28;1256;-59
2022/03/23 09:06:20;;;;;;;;;;;;;;;;;;4219794;28;873;-58
2022/03/23 09:08:40;;;;;;;;;;;;;;;;;;4219260;28;1048;-58
2022/03/23 09:11:01;;;;;;;;;;;;;;;;;;4219610;28;1355;-59
2022/03/23 09:13:22;;;;;;;;;;;;;;;;;;4219733;28;840;-59
2022/03/23 09:15:43;;;;;;;;;;;;;;;;;;4202890;28;1099;-59
2022/03/23 09:18:04;;;;;;;;;;;;;;;;;;4202578;28;1906;-59
2022/03/23 09:20:28;;;;;;;;;;;;;;;;;;4212962;28;1165;-59
2022/03/23 09:22:48;;;;;;;;;;;;;;;;;;4219455;28;1136;-59
2022/03/23 09:25:09;;;;;;;;;;;;;;;;;;4218129;28;1345;-59
2022/03/23 09:27:29;;;;;;;;;;;;;;;;;;4219584;28;966;-59
2022/03/23 09:29:50;;;;;;;;;;;;;;;;;;4219423;28;1535;-60
2022/03/23 09:32:12;;;;;;;;;;;;;;;;;;4219303;28;1162;-59
2022/03/23 09:34:33;;;;;;;;;;;;;;;;;;4219578;28;1080;-59
2022/03/23 09:39:32;;;;;;;;;;;;;;;;;;4219522;28;1211;-59
2022/03/23 09:41:52;;;;;;;;;;;;;;;;;;4219293;28;962;-59
2022/03/23 09:44:13;;;;;;;;;;;;;;;;;;4219383;28;1169;-59
2022/03/23 09:46:33;;;;;;;;;;;;;;;;;;4219473;28;1500;-59
2022/03/23 09:48:54;;;;;;;;;;;;;;;;;;4219874;28;860;-58
2022/03/23 09:51:15;;;;;;;;;;;;;;;;;;4219470;28;1185;-59
2022/03/23 09:53:35;;;;;;;;;;;;;;;;;;4219379;28;1173;-59
2022/03/23 09:55:56;;;;;;;;;;;;;;;;;;4219476;28;1020;-59
2022/03/23 09:58:16;;;;;;;;;;;;;;;;;;4220525;28;1906;-57
2022/03/23 10:00:37;;;;;;;;;;;;;;;;;;4224731;28;981;-58
2022/03/23 10:02:58;;;;;;;;;;;;;;;;;;4223790;28;1016;-57
2022/03/23 10:05:18;;;;;;;;;;;;;;;;;;4223783;28;1072;-58
2022/03/23 10:07:39;;;;;;;;;;;;;;;;;;4224337;28;832;-58
2022/03/23 10:09:59;;;;;;;;;;;;;;;;;;4224744;28;1062;-58
2022/03/23 10:12:24;;;;;;;;;;;;;;;;;;4223314;28;1345;-58
2022/03/23 10:15:09;;;;;;;;;;;;;;;;;;4220848;28;1187;-59
2022/03/23 10:17:29;;;;;;;;;;;;;;;;;;4222787;28;938;-58
2022/03/23 10:19:50;;;;;;;;;;;;;;;;;;4222666;28;1165;-59
2022/03/23 10:22:11;;;;;;;;;;;;;;;;;;4223798;28;1010;-59
2022/03/23 10:24:32;;;;;;;;;;;;;;;;;;4223405;28;1785;-58
2022/03/23 10:26:53;;;;;;;;;;;;;;;;;;4223685;28;1006;-58
2022/03/23 10:29:14;;;;;;;;;;;;;;;;;;4223375;28;1166;-58
2022/03/23 10:31:35;;;;;;;;;;;;;;;;;;4223557;28;1033;-58
2022/03/23 10:33:56;;;;;;;;;;;;;;;;;;4223688;28;988;-60
2022/03/23 10:36:17;;;;;;;;;;;;;;;;;;4223227;28;962;-58
2022/03/23 10:38:38;;;;;;;;;;;;;;;;;;4221701;28;1905;-59
2022/03/23 10:40:59;;;;;;;;;;;;;;;;;;4223348;28;1237;-58
2022/03/23 10:43:19;;;;;;;;;;;;;;;;;;4223340;28;1173;-58
2022/03/23 10:45:39;;;;;;;;;;;;;;;;;;4206236;28;1254;-59
2022/03/23 10:48:00;;;;;;;;;;;;;;;;;;4206587;28;899;-58
2022/03/23 10:50:21;;;;;;;;;;;;;;;;;;4206451;28;1042;-58
2022/03/23 10:52:41;;;;;;;;;;;;;;;;;;4206426;28;949;-58
2022/03/23 10:57:55;;;;;;;;;;;;;;;;;;4206623;28;1907;-58
2022/03/23 11:00:16;;;;;;;;;;;;;;;;;;4205883;28;1026;-58
2022/03/23 11:02:36;;;;;;;;;;;;;;;;;;4206364;28;941;-58
2022/03/23 11:04:57;;;;;;;;;;;;;;;;;;4206751;28;903;-58
2022/03/23 11:07:17;;;;;;;;;;;;;;;;;;4213892;28;1022;-58
2022/03/23 11:17:32;;;;;;;;;;;;;;;;;;4221646;28;996;-58
2022/03/23 11:19:52;;;;;;;;;;;;;;;;;;4221588;28;1985;-58
2022/03/23 11:22:15;;;;;;;;;;;;;;;;;;4222732;28;1112;-58
2022/03/23 11:24:37;;;;;;;;;;;;;;;;;;4222966;28;1205;-60
2022/03/23 11:26:57;;;;;;;;;;;;;;;;;;4222622;28;1324;-58
2022/03/23 11:29:17;;;;;;;;;;;;;;;;;;4222601;28;1072;-58
2022/03/23 11:31:38;;;;;;;;;;;;;;;;;;4222999;28;957;-58
2022/03/23 11:33:59;;;;;;;;;;;;;;;;;;4221267;28;863;-59
2022/03/23 11:36:20;;;;;;;;;;;;;;;;;;4222928;28;961;-58
2022/03/23 11:38:40;;;;;;;;;;;;;;;;;;4223225;28;1907;-58
2022/03/23 11:41:02;;;;;;;;;;;;;;;;;;4223199;28;965;-58
2022/03/23 11:43:22;;;;;;;;;;;;;;;;;;4223117;28;1053;-61
2022/03/23 11:45:42;;;;;;;;;;;;;;;;;;4222984;28;1279;-58
2022/03/23 11:48:03;;;;;;;;;;;;;;;;;;4223066;28;1001;-59
2022/03/23 11:50:25;;;;;;;;;;;;;;;;;;4222471;28;997;-58
2022/03/23 11:52:45;;;;;;;;;;;;;;;;;;4223095;28;937;-59
2022/03/23 11:57:44;;;;;;;;;;;;;;;;;;4222622;28;1069;-58
2022/03/23 12:00:04;;;;;;;;;;;;;;;;;;4222205;28;1993;-58
2022/03/23 12:02:25;;;;;;;;;;;;;;;;;;4222560;28;1032;-58
2022/03/23 12:04:46;;;;;;;;;;;;;;;;;;4222681;28;1023;-58
2022/03/23 12:07:06;;;;;;;;;;;;;;;;;;4222598;28;1047;-58
2022/03/23 12:09:27;;;;;;;;;;;;;;;;;;4222238;28;1032;-58
2022/03/23 12:11:48;;;;;;;;;;;;;;;;;;4222097;28;1316;-58
2022/03/23 12:14:08;;;;;;;;;;;;;;;;;;4222301;28;1169;-58
2022/03/23 12:16:28;;;;;;;;;;;;;;;;;;4222534;28;1002;-58
2022/03/23 12:18:49;;;;;;;;;;;;;;;;;;4222267;28;1905;-58
2022/03/23 12:21:10;;;;;;;;;;;;;;;;;;4222158;28;955;-58
2022/03/23 12:23:31;;;;;;;;;;;;;;;;;;4222660;28;932;-58
2022/03/23 12:25:51;;;;;;;;;;;;;;;;;;4205005;28;1093;-58
2022/03/23 12:28:12;;;;;;;;;;;;;;;;;;4204019;28;957;-58
2022/03/23 12:30:33;;;;;;;;;;;;;;;;;;4220030;28;1479;-57
2022/03/23 12:32:54;;;;;;;;;;;;;;;;;;4220653;28;866;-58
2022/03/23 12:35:14;;;;;;;;;;;;;;;;;;4220559;28;980;-58
2022/03/23 12:37:34;;;;;;;;;;;;;;;;;;4220316;28;951;-58
2022/03/23 12:39:55;;;;;;;;;;;;;;;;;;4220222;28;1905;-58
2022/03/23 12:42:16;;;;;;;;;;;;;;;;;;4218363;28;1200;-57
2022/03/23 12:44:36;;;;;;;;;;;;;;;;;;4219649;28;1034;-56
2022/03/23 12:46:56;;;;;;;;;;;;;;;;;;4219872;28;814;-59
2022/03/23 12:59:58;;;;;;;;;;;;;;;;;;4218663;28;1973;-58
2022/03/23 13:02:19;;;;;;;;;;;;;;;;;;4218593;28;980;-59
2022/03/23 13:04:40;;;;;;;;;;;;;;;;;;4218207;28;1436;-58
2022/03/23 13:07:03;;;;;;;;;;;;;;;;;;4219128;28;958;-58
2022/03/23 13:09:24;;;;;;;;;;;;;;;;;;4218154;28;1308;-58
2022/03/23 13:11:45;;;;;;;;;;;;;;;;;;4215882;28;1521;-59
2022/03/23 13:14:06;;;;;;;;;;;;;;;;;;4229594;28;1166;-58
2022/03/23 13:16:26;;;;;;;;;;;;;;;;;;4235533;28;975;-57
2022/03/23 13:18:47;;;;;;;;;;;;;;;;;;4235546;28;1913;-59
2022/03/23 13:21:07;;;;;;;;;;;;;;;;;;4234230;27;1084;-59
2022/03/23 13:23:27;;;;;;;;;;;;;;;;;;4235871;28;997;-59
2022/03/23 13:25:48;;;;;;;;;;;;;;;;;;4235116;27;1263;-59
2022/03/23 13:28:08;;;;;;;;;;;;;;;;;;4235038;28;1006;-59
2022/03/23 13:30:29;;;;;;;;;;;;;;;;;;4234921;28;1158;-59
2022/03/23 13:32:50;;;;;;;;;;;;;;;;;;4234005;27;1262;-59
2022/03/23 13:35:11;;;;;;;;;;;;;;;;;;4235684;28;819;-60
2022/03/23 13:37:32;;;;;;;;;;;;;;;;;;4235503;27;993;-59
2022/03/23 13:39:52;;;;;;;;;;;;;;;;;;4235884;28;1974;-59
2022/03/23 13:44:57;;;;;;;;;;;;;;;;;;4235740;28;1037;-59
2022/03/23 13:47:17;;;;;;;;;;;;;;;;;;4235690;27;946;-58
2022/03/23 13:49:38;;;;;;;;;;;;;;;;;;4235372;27;1010;-60
2022/03/23 13:51:58;;;;;;;;;;;;;;;;;;4235854;28;1041;-57
2022/03/23 13:54:19;;;;;;;;;;;;;;;;;;4235270;27;1004;-57
2022/03/23 13:56:40;;;;;;;;;;;;;;;;;;4234945;27;1198;-58
2022/03/23 13:59:01;;;;;;;;;;;;;;;;;;4234300;28;1905;-58
2022/03/23 14:01:23;;;;;;;;;;;;;;;;;;4235746;28;941;-57
2022/03/23 14:03:43;;;;;;;;;;;;;;;;;;4233875;28;1030;-57
2022/03/23 14:06:03;;;;;;;;;;;;;;;;;;4235782;27;1024;-57
2022/03/23 14:08:24;;;;;;;;;;;;;;;;;;4235817;28;956;-58
2022/03/23 14:10:45;;;;;;;;;;;;;;;;;;4235527;27;1237;-57
2022/03/23 14:13:05;;;;;;;;;;;;;;;;;;4235691;27;1058;-57
2022/03/23 14:15:26;;;;;;;;;;;;;;;;;;4235260;27;1122;-58
2022/03/23 14:17:47;;;;;;;;;;;;;;;;;;4234842;27;1090;-57
2022/03/23 14:20:07;;;;;;;;;;;;;;;;;;4234913;27;1882;-58
2022/03/23 14:22:27;;;;;;;;;;;;;;;;;;4234941;27;1179;-58
2022/03/23 14:24:48;;;;;;;;;;;;;;;;;;4234416;27;1035;-58
2022/03/23 14:27:08;;;;;;;;;;;;;;;;;;4235094;27;1182;-57
2022/03/23 14:29:29;;;;;;;;;;;;;;;;;;4234802;27;1238;-57
2022/03/23 14:31:50;;;;;;;;;;;;;;;;;;4234597;27;1020;-57
2022/03/23 14:34:11;;;;;;;;;;;;;;;;;;4234731;27;1189;-57
2022/03/23 14:36:31;;;;;;;;;;;;;;;;;;4234571;27;1286;-57
2022/03/23 14:38:52;;;;;;;;;;;;;;;;;;4234604;27;973;-58
2022/03/23 14:41:14;;;;;;;;;;;;;;;;;;4234402;27;1917;-58
2022/03/23 14:43:43;;;;;;;;;;;;;;;;;;4231034;27;1472;-58
2022/03/23 14:46:03;;;;;;;;;;;;;;;;;;4237587;27;1015;-58
2022/03/23 14:48:23;;;;;;;;;;;;;;;;;;4237850;28;952;-58
2022/03/23 14:50:44;;;;;;;;;;;;;;;;;;4237315;27;970;-58
2022/03/23 14:53:04;;;;;;;;;;;;;;;;;;4236621;27;1051;-58
2022/03/23 14:55:24;;;;;;;;;;;;;;;;;;4236347;28;1097;-58
2022/03/23 14:57:45;;;;;;;;;;;;;;;;;;4237026;27;965;-58
2022/03/23 15:00:07;;;;;;;;;;;;;;;;;;4237182;27;1985;-59
2022/03/23 15:02:29;;;;;;;;;;;;;;;;;;4236171;28;970;-60
2022/03/23 15:04:49;;;;;;;;;;;;;;;;;;4236803;27;1136;-59
2022/03/23 15:15:05;;;;;;;;;;;;;;;;;;4237220;27;974;-58
2022/03/23 15:17:25;;;;;;;;;;;;;;;;;;4237917;28;1048;-58
2022/03/23 15:19:46;;;;;;;;;;;;;;;;;;4236869;27;1978;-59
2022/03/23 15:22:07;;;;;;;;;;;;;;;;;;4237488;27;969;-58
2022/03/23 15:24:27;;;;;;;;;;;;;;;;;;4237449;28;862;-59
2022/03/23 15:26:50;;;;;;;;;;;;;;;;;;4237015;27;1019;-59
2022/03/23 15:29:11;;;;;;;;;;;;;;;;;;4237441;27;942;-57
2022/03/23 15:31:32;;;;;;;;;;;;;;;;;;4237537;27;1114;-57
2022/03/23 15:33:53;;;;;;;;;;;;;;;;;;4237433;28;926;-58
2022/03/23 15:36:15;;;;;;;;;;;;;;;;;;4237366;27;966;-57
2022/03/23 15:38:36;;;;;;;;;;;;;;;;;;4237082;27;1195;-58
2022/03/23 15:40:56;;;;;;;;;;;;;;;;;;4235951;28;1906;-58
2022/03/23 15:43:16;;;;;;;;;;;;;;;;;;4236683;28;1063;-58
2022/03/23 15:45:37;;;;;;;;;;;;;;;;;;4237102;27;914;-59
2022/03/23 15:47:58;;;;;;;;;;;;;;;;;;4237277;28;862;-58
2022/03/23 15:50:18;;;;;;;;;;;;;;;;;;4235956;28;849;-58
2022/03/23 15:52:39;;;;;;;;;;;;;;;;;;4235617;28;1252;-60
2022/03/23 15:54:59;;;;;;;;;;;;;;;;;;4236189;27;1204;-58
2022/03/23 15:57:19;;;;;;;;;;;;;;;;;;4236207;27;1101;-58
2022/03/23 15:59:40;;;;;;;;;;;;;;;;;;4237030;28;817;-58
2022/03/23 16:02:01;;;;;;;;;;;;;;;;;;4236454;27;937;-58
2022/03/23 16:04:22;;;;;;;;;;;;;;;;;;4235819;27;1000;-58
2022/03/23 16:06:42;;;;;;;;;;;;;;;;;;4237069;27;1217;-58
2022/03/23 16:09:03;;;;;;;;;;;;;;;;;;4236523;27;1009;-58
2022/03/23 16:11:24;;;;;;;;;;;;;;;;;;4236669;27;1022;-59
2022/03/23 16:13:45;;;;;;;;;;;;;;;;;;4237798;27;974;-58
2022/03/23 16:16:05;;;;;;;;;;;;;;;;;;4237915;28;1033;-58
2022/03/23 16:18:25;;;;;;;;;;;;;;;;;;4237483;27;1264;-58
2022/03/23 16:20:46;;;;;;;;;;;;;;;;;;4237912;28;1986;-58
2022/03/23 16:23:06;;;;;;;;;;;;;;;;;;4237837;28;1005;-58
2022/03/23 16:25:27;;;;;;;;;;;;;;;;;;4237406;27;1236;-58
2022/03/23 16:27:47;;;;;;;;;;;;;;;;;;4238142;28;858;-58
2022/03/23 16:30:07;;;;;;;;;;;;;;;;;;4237977;28;817;-58
2022/03/23 16:32:29;;;;;;;;;;;;;;;;;;4237431;27;976;-58
2022/03/23 16:34:50;;;;;;;;;;;;;;;;;;4237593;27;981;-59
2022/03/23 16:37:10;;;;;;;;;;;;;;;;;;4237609;27;964;-59
2022/03/23 16:39:31;;;;;;;;;;;;;;;;;;4236836;28;987;-59
2022/03/23 16:41:52;;;;;;;;;;;;;;;;;;4237371;27;1984;-59
2022/03/23 16:44:12;;;;;;;;;;;;;;;;;;4236003;28;1276;-59
2022/03/23 16:46:34;;;;;;;;;;;;;;;;;;4218077;28;1512;-59
2022/03/23 16:48:58;;;;;;;;;;;;;;;;;;4219399;28;1243;-58
2022/03/23 16:51:22;;;;;;;;;;;;;;;;;;4218501;28;1231;-58
2022/03/23 16:53:42;;;;;;;;;;;;;;;;;;4219470;28;1212;-58
2022/03/23 16:56:05;;;;;;;;;;;;;;;;;;4220612;28;1386;-59
2022/03/23 16:58:25;;;;;;;;;;;;;;;;;;4218561;28;961;-58
2022/03/23 17:00:46;;;;;;;;;;;;;;;;;;4219305;28;1902;-59
2022/03/23 17:13:40;;;;;;;;;;;;;;;;;;4219389;28;1115;-58
2022/03/23 17:16:01;;;;;;;;;;;;;;;;;;4218970;28;1024;-59
2022/03/23 17:18:21;;;;;;;;;;;;;;;;;;4218921;28;1171;-58
2022/03/23 17:20:42;;;;;;;;;;;;;;;;;;4218502;28;1914;-58
2022/03/23 17:23:02;;;;;;;;;;;;;;;;;;4219573;28;815;-58
2022/03/23 17:25:23;;;;;;;;;;;;;;;;;;4218739;28;1366;-58
2022/03/23 17:27:44;;;;;;;;;;;;;;;;;;4202314;28;981;-58